Time;durP1;ratioP1;P1;durP2;ratioP2;P2;SDS_P1;SDS_P2;PMS_P1;PMS_P2;Temp;Humidity;BMP_temperature;BMP_pressure;BME280_temperature;BME280_humidity;BME280_pressure;Samples;Min_cycle;Max_cycle;Signal;HPM_P1;HPM_P2
2022/03/25 00:00:05;;;;;;;35.40;19.05;;;;;;;;;;5049205;28;20319;-69
2022/03/25 00:02:32;;;;;;;33.30;18.90;;;;;;;;;;5031928;28;20049;-69
2022/03/25 00:04:59;;;;;;;33.22;18.63;;;;;;;;;;5035762;28;20049;-70
2022/03/25 00:07:27;;;;;;;34.40;18.95;;;;;;;;;;5036772;28;20044;-69
2022/03/25 00:09:54;;;;;;;;;;;;;;;;;;5029808;28;20057;-70
2022/03/25 00:12:20;;;;;;;40.10;18.55;;;;;;;;;;5059277;28;20153;-69
2022/03/25 00:14:46;;;;;;;36.13;18.23;;;;;;;;;;5040102;28;20390;-68
2022/03/25 00:17:12;;;;;;;30.92;18.25;;;;;;;;;;5027703;28;20049;-68
2022/03/25 00:19:39;;;;;;;34.45;18.27;;;;;;;;;;5034354;28;20052;-69
2022/03/25 00:22:05;;;;;;;36.22;18.60;;;;;;;;;;5042071;28;20782;-68
2022/03/25 00:24:31;;;;;;;35.88;19.38;;;;;;;;;;5035203;28;20606;-69
2022/03/25 00:26:58;;;;;;;40.55;19.50;;;;;;;;;;5036104;28;20071;-69
2022/03/25 00:29:25;;;;;;;37.92;20.60;;;;;;;;;;5034117;28;20374;-69
2022/03/25 00:31:51;;;;;;;40.22;19.38;;;;;;;;;;5013457;28;20814;-68
2022/03/25 00:34:18;;;;;;;42.45;19.25;;;;;;;;;;5045160;28;20060;-68
2022/03/25 00:36:44;;;;;;;45.38;21.60;;;;;;;;;;5031178;28;20434;-68
2022/03/25 00:39:11;;;;;;;39.50;21.58;;;;;;;;;;5047774;28;20055;-69
2022/03/25 00:41:41;;;;;;;45.53;21.63;;;;;;;;;;5033675;28;20048;-68
2022/03/25 00:44:07;;;;;;;43.47;22.23;;;;;;;;;;5024016;28;20488;-69
2022/03/25 00:46:34;;;;;;;40.90;22.00;;;;;;;;;;5040100;28;20432;-69
2022/03/25 00:49:00;;;;;;;41.90;20.30;;;;;;;;;;5034181;28;20075;-69
2022/03/25 00:51:28;;;;;;;45.65;21.65;;;;;;;;;;5042954;28;20047;-69
2022/03/25 00:53:54;;;;;;;44.15;22.17;;;;;;;;;;5032206;28;20049;-68
2022/03/25 00:56:21;;;;;;;45.50;22.73;;;;;;;;;;5041354;28;20265;-69
2022/03/25 00:58:47;;;;;;;41.20;22.23;;;;;;;;;;5007369;28;20465;-69
2022/03/25 01:01:15;;;;;;;45.83;25.00;;;;;;;;;;5032219;28;20452;-69
2022/03/25 01:03:42;;;;;;;47.85;23.17;;;;;;;;;;5042779;28;20057;-69
2022/03/25 01:06:08;;;;;;;50.67;24.30;;;;;;;;;;5029670;28;20048;-69
2022/03/25 01:08:35;;;;;;;42.28;23.05;;;;;;;;;;5030590;28;20048;-69
2022/03/25 01:11:04;;;;;;;44.47;21.98;;;;;;;;;;5028774;28;20046;-69
2022/03/25 01:13:33;;;;;;;41.38;22.02;;;;;;;;;;5039010;28;20052;-69
2022/03/25 01:16:04;;;;;;;43.13;22.95;;;;;;;;;;5043315;28;20502;-70
2022/03/25 01:18:31;;;;;;;45.40;22.88;;;;;;;;;;5041939;28;20045;-69
2022/03/25 01:20:57;;;;;;;46.38;23.40;;;;;;;;;;5041039;28;20417;-69
2022/03/25 01:23:24;;;;;;;41.20;22.92;;;;;;;;;;5033606;28;20050;-69
2022/03/25 01:25:51;;;;;;;46.25;24.52;;;;;;;;;;5045157;28;20045;-69
2022/03/25 01:28:17;;;;;;;46.28;23.17;;;;;;;;;;5014898;28;20052;-69
2022/03/25 01:30:43;;;;;;;47.90;24.70;;;;;;;;;;5030951;28;20540;-69
2022/03/25 01:33:10;;;;;;;46.35;24.17;;;;;;;;;;5042763;28;20041;-69
2022/03/25 01:35:36;;;;;;;52.45;25.30;;;;;;;;;;5017369;28;20056;-69
2022/03/25 01:38:03;;;;;;;47.13;26.25;;;;;;;;;;5045069;28;20057;-69
2022/03/25 01:40:30;;;;;;;50.05;26.52;;;;;;;;;;5025797;28;20049;-69
2022/03/25 01:42:56;;;;;;;50.67;26.30;;;;;;;;;;5040915;28;20505;-70
2022/03/25 01:45:32;;;;;;;45.95;23.67;;;;;;;;;;5042900;28;20136;-69
2022/03/25 01:47:59;;;;;;;45.45;25.90;;;;;;;;;;5036605;28;20526;-69
2022/03/25 01:50:26;;;;;;;53.47;26.80;;;;;;;;;;5058287;28;20133;-69
2022/03/25 01:52:52;;;;;;;46.83;26.10;;;;;;;;;;5015252;28;20049;-69
2022/03/25 01:55:21;;;;;;;50.28;25.55;;;;;;;;;;5033479;28;20527;-69
2022/03/25 01:57:49;;;;;;;46.55;26.42;;;;;;;;;;5037499;28;20505;-69
2022/03/25 02:00:17;;;;;;;48.07;27.30;;;;;;;;;;5029712;28;20041;-69
2022/03/25 02:02:44;;;;;;;48.20;26.08;;;;;;;;;;5044538;28;20049;-69
2022/03/25 02:05:10;;;;;;;48.13;25.60;;;;;;;;;;5036772;28;20128;-69
2022/03/25 02:07:37;;;;;;;51.03;26.92;;;;;;;;;;5037270;28;20068;-69
2022/03/25 02:10:05;;;;;;;44.53;25.73;;;;;;;;;;5020891;28;20118;-69
2022/03/25 02:12:31;;;;;;;49.87;24.97;;;;;;;;;;5039317;28;20487;-69
2022/03/25 02:14:58;;;;;;;50.30;26.30;;;;;;;;;;5044686;28;20053;-69
2022/03/25 02:17:24;;;;;;;46.03;25.08;;;;;;;;;;5026849;28;20049;-69
2022/03/25 02:19:51;;;;;;;45.45;25.40;;;;;;;;;;5040373;28;20057;-69
2022/03/25 02:22:17;;;;;;;45.90;25.90;;;;;;;;;;5025544;28;20048;-69
2022/03/25 02:24:44;;;;;;;47.05;25.52;;;;;;;;;;5020760;28;20057;-69
2022/03/25 02:27:11;;;;;;;49.72;25.52;;;;;;;;;;5028715;28;20052;-69
2022/03/25 02:29:39;;;;;;;55.28;28.45;;;;;;;;;;5041593;28;20057;-69
2022/03/25 02:32:05;;;;;;;54.45;27.90;;;;;;;;;;5041267;28;20053;-69
2022/03/25 02:34:38;;;;;;;46.63;25.90;;;;;;;;;;5039451;28;20053;-69
2022/03/25 02:37:05;;;;;;;48.63;26.40;;;;;;;;;;5039868;28;20072;-69
2022/03/25 02:39:31;;;;;;;49.33;26.65;;;;;;;;;;5035540;28;20058;-69
2022/03/25 02:41:57;;;;;;;52.40;28.30;;;;;;;;;;5039171;28;20056;-69
2022/03/25 02:44:24;;;;;;;52.92;27.05;;;;;;;;;;5042826;28;20048;-69
2022/03/25 02:46:50;;;;;;;48.13;26.38;;;;;;;;;;5031944;28;20050;-69
2022/03/25 02:49:18;;;;;;;50.08;27.55;;;;;;;;;;5018526;28;20080;-70
2022/03/25 02:51:44;;;;;;;47.28;25.60;;;;;;;;;;5040930;28;20076;-69
2022/03/25 02:54:10;;;;;;;54.13;27.58;;;;;;;;;;5048199;28;20048;-69
2022/03/25 02:56:36;;;;;;;51.55;28.00;;;;;;;;;;5039095;28;20049;-69
2022/03/25 02:59:03;;;;;;;50.60;26.13;;;;;;;;;;5041975;28;20099;-69
2022/03/25 03:01:30;;;;;;;47.65;26.05;;;;;;;;;;5029790;28;20521;-69
2022/03/25 03:03:56;;;;;;;58.25;28.45;;;;;;;;;;5020368;28;20172;-69
2022/03/25 03:06:23;;;;;;;55.85;28.67;;;;;;;;;;5024542;28;20060;-69
2022/03/25 03:08:49;;;;;;;47.38;26.42;;;;;;;;;;5043352;28;20057;-68
2022/03/25 03:11:16;;;;;;;52.97;28.00;;;;;;;;;;5036262;28;20044;-69
2022/03/25 03:13:44;;;;;;;51.75;26.38;;;;;;;;;;5021509;28;20123;-69
2022/03/25 03:16:11;;;;;;;51.15;26.42;;;;;;;;;;5040341;28;20053;-70
2022/03/25 03:18:38;;;;;;;54.25;28.08;;;;;;;;;;5026679;28;20381;-70
2022/03/25 03:21:04;;;;;;;54.17;27.80;;;;;;;;;;5019914;28;20045;-70
2022/03/25 03:23:30;;;;;;;50.28;27.63;;;;;;;;;;5038537;28;20040;-70
2022/03/25 03:25:57;;;;;;;54.20;28.83;;;;;;;;;;5024457;28;20430;-70
2022/03/25 03:28:23;;;;;;;54.33;27.88;;;;;;;;;;5031542;28;20055;-70
2022/03/25 03:30:49;;;;;;;51.83;26.80;;;;;;;;;;5029328;28;20246;-69
2022/03/25 03:33:16;;;;;;;55.25;28.80;;;;;;;;;;5041163;28;20048;-69
2022/03/25 03:35:42;;;;;;;53.20;27.05;;;;;;;;;;5037445;28;20052;-69
2022/03/25 03:38:09;;;;;;;52.58;29.48;;;;;;;;;;5051810;28;20491;-70
2022/03/25 03:40:37;;;;;;;57.75;28.73;;;;;;;;;;5046817;28;20460;-69
2022/03/25 03:43:03;;;;;;;61.70;30.45;;;;;;;;;;5029568;28;20149;-69
2022/03/25 03:45:32;;;;;;;57.42;29.95;;;;;;;;;;5043291;28;20084;-68
2022/03/25 03:47:58;;;;;;;;;;;;;;;;;;5024676;28;20049;-68
2022/03/25 03:50:25;;;;;;;59.38;29.15;;;;;;;;;;5038340;28;19928;-69
2022/03/25 03:52:51;;;;;;;59.45;30.05;;;;;;;;;;5031353;28;20052;-69
2022/03/25 03:55:18;;;;;;;56.90;30.20;;;;;;;;;;5035263;28;20065;-69
2022/03/25 03:57:44;;;;;;;55.55;28.95;;;;;;;;;;5034069;28;20045;-69
2022/03/25 04:00:12;;;;;;;54.88;29.02;;;;;;;;;;5030844;28;20060;-70
2022/03/25 04:02:39;;;;;;;52.47;28.83;;;;;;;;;;5041319;28;20060;-68
2022/03/25 04:05:05;;;;;;;55.42;29.92;;;;;;;;;;5032000;28;20131;-69
2022/03/25 04:07:32;;;;;;;55.88;29.98;;;;;;;;;;5037943;28;20045;-69
2022/03/25 04:09:58;;;;;;;54.35;30.10;;;;;;;;;;5033958;28;20481;-69
2022/03/25 04:12:24;;;;;;;63.60;32.55;;;;;;;;;;5042724;28;20487;-69
2022/03/25 04:14:51;;;;;;;63.67;34.15;;;;;;;;;;5041528;28;20068;-68
2022/03/25 04:17:19;;;;;;;61.33;32.25;;;;;;;;;;5031638;28;20548;-69
2022/03/25 04:19:46;;;;;;;73.53;35.25;;;;;;;;;;5056400;28;20504;-69
2022/03/25 04:22:12;;;;;;;62.97;35.30;;;;;;;;;;5033373;28;20048;-68
2022/03/25 04:24:38;;;;;;;75.93;38.08;;;;;;;;;;5039931;28;20083;-68
2022/03/25 04:27:04;;;;;;;68.97;37.60;;;;;;;;;;5032353;28;20055;-69
2022/03/25 04:29:31;;;;;;;68.90;37.08;;;;;;;;;;5043529;28;20044;-69
2022/03/25 04:31:57;;;;;;;71.80;37.17;;;;;;;;;;5046623;28;20049;-69
2022/03/25 04:34:23;;;;;;;69.07;34.13;;;;;;;;;;5036767;28;20049;-69
2022/03/25 04:36:50;;;;;;;67.35;36.55;;;;;;;;;;5037436;28;20041;-68
2022/03/25 04:39:17;;;;;;;65.88;36.67;;;;;;;;;;5027298;28;20764;-68
2022/03/25 04:41:43;;;;;;;78.95;38.28;;;;;;;;;;5015613;28;20053;-69
2022/03/25 04:44:09;;;;;;;66.03;36.67;;;;;;;;;;5016382;28;20041;-68
2022/03/25 04:46:35;;;;;;;69.32;37.50;;;;;;;;;;5032403;28;20049;-69
2022/03/25 04:49:02;;;;;;;70.13;37.90;;;;;;;;;;5035051;28;20087;-69
2022/03/25 04:51:28;;;;;;;70.80;37.97;;;;;;;;;;5032762;28;20088;-69
2022/03/25 04:53:55;;;;;;;67.68;36.00;;;;;;;;;;5028867;28;20041;-69
2022/03/25 04:56:21;;;;;;;66.63;35.97;;;;;;;;;;5021859;28;20050;-69
2022/03/25 04:58:47;;;;;;;68.43;37.75;;;;;;;;;;5033802;28;20049;-68
2022/03/25 05:01:14;;;;;;;65.93;35.83;;;;;;;;;;5040240;28;20351;-68
2022/03/25 05:03:40;;;;;;;70.63;37.88;;;;;;;;;;5040969;28;20049;-68
2022/03/25 05:06:07;;;;;;;71.75;37.70;;;;;;;;;;5040052;28;20045;-68
2022/03/25 05:08:33;;;;;;;69.32;37.97;;;;;;;;;;5034719;28;20639;-70
2022/03/25 05:11:03;;;;;;;72.75;39.45;;;;;;;;;;5028829;28;20849;-68
2022/03/25 05:13:29;;;;;;;72.38;39.25;;;;;;;;;;5035622;28;20421;-68
2022/03/25 05:15:56;;;;;;;74.30;39.35;;;;;;;;;;5048816;28;20049;-70
2022/03/25 05:18:23;;;;;;;75.28;38.35;;;;;;;;;;5039548;28;20266;-69
2022/03/25 05:20:50;;;;;;;73.18;39.08;;;;;;;;;;5032713;28;20073;-69
2022/03/25 05:23:16;;;;;;;73.88;39.35;;;;;;;;;;5038294;28;20045;-69
2022/03/25 05:25:42;;;;;;;70.38;37.40;;;;;;;;;;5034866;28;20057;-68
2022/03/25 05:28:09;;;;;;;76.53;40.22;;;;;;;;;;5051177;28;20045;-69
2022/03/25 05:30:35;;;;;;;78.40;40.17;;;;;;;;;;5027792;28;20060;-69
2022/03/25 05:33:02;;;;;;;71.60;39.22;;;;;;;;;;5026043;28;20056;-69
2022/03/25 05:35:29;;;;;;;71.05;39.53;;;;;;;;;;5043531;28;20052;-68
2022/03/25 05:37:56;;;;;;;75.43;39.05;;;;;;;;;;5036225;28;20060;-69
2022/03/25 05:40:23;;;;;;;71.18;37.65;;;;;;;;;;5038439;28;20603;-69
2022/03/25 05:42:50;;;;;;;79.57;39.90;;;;;;;;;;5007277;28;20061;-68
2022/03/25 05:45:17;;;;;;;74.35;37.88;;;;;;;;;;5040540;28;20055;-68
2022/03/25 05:47:43;;;;;;;72.15;36.97;;;;;;;;;;5036334;28;20080;-68
2022/03/25 05:50:11;;;;;;;81.20;40.40;;;;;;;;;;5039233;28;20052;-69
2022/03/25 05:52:38;;;;;;;78.13;41.70;;;;;;;;;;5046979;28;20319;-69
2022/03/25 05:55:05;;;;;;;76.93;40.75;;;;;;;;;;5042550;28;20055;-69
2022/03/25 05:57:32;;;;;;;83.60;43.25;;;;;;;;;;5045723;28;20482;-68
2022/03/25 05:59:59;;;;;;;83.85;42.85;;;;;;;;;;5014875;28;20452;-69
2022/03/25 06:02:27;;;;;;;;;;;;;;;;;;5042807;28;20037;-68
2022/03/25 06:04:55;;;;;;;86.82;44.00;;;;;;;;;;5037985;28;20342;-68
2022/03/25 06:07:22;;;;;;;81.20;39.75;;;;;;;;;;5035292;28;20037;-68
2022/03/25 06:09:48;;;;;;;88.32;43.97;;;;;;;;;;5045229;28;20418;-68
2022/03/25 06:12:14;;;;;;;85.03;44.67;;;;;;;;;;5019829;28;20046;-67
2022/03/25 06:14:41;;;;;;;82.22;42.50;;;;;;;;;;5029090;28;20407;-67
2022/03/25 06:17:07;;;;;;;87.68;44.83;;;;;;;;;;5030832;28;20434;-68
2022/03/25 06:19:33;;;;;;;86.18;43.60;;;;;;;;;;5034048;28;20061;-68
2022/03/25 06:22:00;;;;;;;81.70;42.78;;;;;;;;;;5028125;28;20418;-68
2022/03/25 06:24:26;;;;;;;83.30;43.90;;;;;;;;;;5036955;28;20048;-68
2022/03/25 06:26:52;;;;;;;84.63;42.75;;;;;;;;;;5024958;28;20052;-68
2022/03/25 06:29:19;;;;;;;83.35;45.00;;;;;;;;;;5014430;28;20059;-68
2022/03/25 06:31:46;;;;;;;90.10;44.60;;;;;;;;;;5033355;28;20052;-67
2022/03/25 06:34:14;;;;;;;89.15;43.97;;;;;;;;;;5027360;28;20050;-68
2022/03/25 06:36:41;;;;;;;87.57;44.17;;;;;;;;;;5038501;28;20052;-68
2022/03/25 06:39:07;;;;;;;87.03;44.95;;;;;;;;;;5041726;28;20240;-68
2022/03/25 06:41:33;;;;;;;89.30;45.67;;;;;;;;;;5034406;28;20506;-68
2022/03/25 06:44:01;;;;;;;84.25;44.00;;;;;;;;;;5039416;28;20100;-68
2022/03/25 06:46:27;;;;;;;86.07;44.88;;;;;;;;;;5026025;28;20542;-68
2022/03/25 06:48:54;;;;;;;96.68;44.72;;;;;;;;;;5038356;28;20055;-68
2022/03/25 06:51:20;;;;;;;98.15;44.03;;;;;;;;;;5029158;28;20083;-68
2022/03/25 06:53:46;;;;;;;98.55;47.15;;;;;;;;;;5023055;28;20451;-69
2022/03/25 06:56:13;;;;;;;92.55;46.70;;;;;;;;;;5049741;28;20059;-69
2022/03/25 06:58:40;;;;;;;90.10;46.47;;;;;;;;;;5037640;28;20052;-69
2022/03/25 07:01:06;;;;;;;89.68;45.40;;;;;;;;;;5033379;28;20437;-69
2022/03/25 07:03:33;;;;;;;79.80;42.45;;;;;;;;;;5047459;28;20056;-69
2022/03/25 07:06:00;;;;;;;84.93;44.15;;;;;;;;;;5028425;28;20112;-69
2022/03/25 07:08:27;;;;;;;85.93;44.33;;;;;;;;;;5015144;28;20135;-69
2022/03/25 07:10:54;;;;;;;74.97;41.80;;;;;;;;;;5030249;28;20049;-69
2022/03/25 07:13:20;;;;;;;88.47;45.28;;;;;;;;;;5038739;28;20072;-68
2022/03/25 07:15:47;;;;;;;82.57;44.10;;;;;;;;;;5033940;28;20057;-69
2022/03/25 07:18:13;;;;;;;82.93;43.25;;;;;;;;;;5053491;28;20050;-69
2022/03/25 07:20:39;;;;;;;86.80;45.22;;;;;;;;;;5045538;28;20705;-69
2022/03/25 07:23:06;;;;;;;91.68;44.63;;;;;;;;;;5026467;28;20073;-68
2022/03/25 07:25:33;;;;;;;74.05;40.17;;;;;;;;;;5023043;28;20049;-69
2022/03/25 07:27:59;;;;;;;74.35;41.03;;;;;;;;;;5027764;28;20527;-69
2022/03/25 07:30:25;;;;;;;77.13;42.08;;;;;;;;;;5030897;28;20045;-69
2022/03/25 07:32:52;;;;;;;83.63;42.97;;;;;;;;;;5023713;28;20056;-69
2022/03/25 07:35:18;;;;;;;77.88;41.95;;;;;;;;;;5029863;28;20064;-69
2022/03/25 07:37:45;;;;;;;75.88;41.15;;;;;;;;;;5025553;28;20433;-69
2022/03/25 07:40:12;;;;;;;77.38;42.17;;;;;;;;;;5046923;28;20434;-69
2022/03/25 07:42:40;;;;;;;81.90;43.35;;;;;;;;;;5039225;28;20405;-69
2022/03/25 07:45:08;;;;;;;75.70;42.67;;;;;;;;;;5043663;28;20049;-69
2022/03/25 07:47:42;;;;;;;75.18;41.60;;;;;;;;;;5016555;28;20052;-69
2022/03/25 07:50:09;;;;;;;79.13;41.30;;;;;;;;;;5020483;28;20390;-69
2022/03/25 07:52:36;;;;;;;75.90;41.58;;;;;;;;;;5051341;28;20326;-69
2022/03/25 07:55:03;;;;;;;77.40;42.97;;;;;;;;;;5032181;28;20057;-69
2022/03/25 07:57:29;;;;;;;69.53;38.88;;;;;;;;;;5043583;28;20784;-69
2022/03/25 07:59:58;;;;;;;77.22;41.63;;;;;;;;;;5031228;28;20687;-69
2022/03/25 08:02:24;;;;;;;78.37;41.10;;;;;;;;;;5034893;28;20056;-69
2022/03/25 08:04:51;;;;;;;69.47;38.72;;;;;;;;;;5042119;28;20347;-69
2022/03/25 08:07:18;;;;;;;77.03;40.28;;;;;;;;;;5040090;28;20055;-69
2022/03/25 08:09:44;;;;;;;85.85;42.20;;;;;;;;;;5038054;28;20828;-69
2022/03/25 08:12:11;;;;;;;67.80;36.67;;;;;;;;;;5029247;28;20671;-69
2022/03/25 08:14:37;;;;;;;67.55;38.30;;;;;;;;;;5039277;28;20045;-69
2022/03/25 08:17:03;;;;;;;73.65;41.25;;;;;;;;;;5025766;28;20163;-70
2022/03/25 08:19:32;;;;;;;75.00;41.97;;;;;;;;;;5036840;28;20094;-69
2022/03/25 08:21:58;;;;;;;72.35;40.22;;;;;;;;;;5045346;28;20045;-69
2022/03/25 08:29:55;;;;;;;77.20;42.13;;;;;;;;;;5029152;28;20517;-69
2022/03/25 08:32:21;;;;;;;75.30;40.40;;;;;;;;;;5036636;28;20530;-69
2022/03/25 08:34:47;;;;;;;67.75;37.38;;;;;;;;;;5039517;28;20049;-69
2022/03/25 08:37:14;;;;;;;71.13;41.15;;;;;;;;;;5025812;28;20186;-69
2022/03/25 08:39:40;;;;;;;72.88;40.53;;;;;;;;;;5043608;28;20052;-69
2022/03/25 08:42:08;;;;;;;74.75;40.72;;;;;;;;;;5032861;28;20481;-69
2022/03/25 08:44:35;;;;;;;75.65;40.92;;;;;;;;;;5036348;28;20560;-69
2022/03/25 08:47:01;;;;;;;71.75;38.92;;;;;;;;;;5037253;28;20052;-69
2022/03/25 08:49:29;;;;;;;69.20;40.83;;;;;;;;;;5059992;28;20132;-69
2022/03/25 08:51:56;;;;;;;66.18;37.85;;;;;;;;;;5032456;28;20091;-69
2022/03/25 08:54:23;;;;;;;71.65;40.00;;;;;;;;;;5043578;28;20052;-69
2022/03/25 08:56:49;;;;;;;72.78;40.83;;;;;;;;;;5040807;28;20051;-69
2022/03/25 08:59:16;;;;;;;68.43;38.03;;;;;;;;;;5028047;28;20055;-69
2022/03/25 09:01:44;;;;;;;74.72;39.70;;;;;;;;;;5038191;28;20349;-69
2022/03/25 09:04:10;;;;;;;63.60;36.03;;;;;;;;;;5040859;28;20053;-69
2022/03/25 09:06:37;;;;;;;69.38;38.80;;;;;;;;;;5038557;28;20053;-69
2022/03/25 09:09:03;;;;;;;73.00;38.92;;;;;;;;;;5037624;28;20099;-69
2022/03/25 09:11:31;;;;;;;70.22;36.63;;;;;;;;;;5045598;28;20465;-69
2022/03/25 09:13:57;;;;;;;68.45;38.33;;;;;;;;;;5050400;28;20055;-69
2022/03/25 09:16:23;;;;;;;72.18;39.47;;;;;;;;;;5013356;28;20045;-69
2022/03/25 09:18:50;;;;;;;70.18;38.97;;;;;;;;;;5039525;28;20167;-69
2022/03/25 09:21:16;;;;;;;69.43;39.13;;;;;;;;;;5039673;28;20136;-69
2022/03/25 09:23:43;;;;;;;63.78;38.15;;;;;;;;;;5053595;28;20052;-70
2022/03/25 09:26:09;;;;;;;70.38;39.20;;;;;;;;;;5003964;28;20054;-70
2022/03/25 09:28:35;;;;;;;58.15;33.20;;;;;;;;;;5042878;28;20052;-69
2022/03/25 09:31:02;;;;;;;60.03;34.38;;;;;;;;;;5033815;28;20349;-69
2022/03/25 09:33:28;;;;;;;64.03;36.38;;;;;;;;;;5038195;28;20045;-69
2022/03/25 09:35:57;;;;;;;63.60;37.42;;;;;;;;;;5040344;28;20059;-69
2022/03/25 09:38:23;;;;;;;61.83;37.63;;;;;;;;;;5017657;28;20044;-70
2022/03/25 09:40:50;;;;;;;61.97;37.72;;;;;;;;;;5052141;28;20357;-69
2022/03/25 09:43:20;;;;;;;62.83;38.05;;;;;;;;;;5036953;28;20049;-69
2022/03/25 09:45:46;;;;;;;71.00;38.00;;;;;;;;;;5027604;28;20614;-69
2022/03/25 09:48:13;;;;;;;60.70;35.00;;;;;;;;;;5047588;28;20556;-69
2022/03/25 09:50:40;;;;;;;63.42;37.67;;;;;;;;;;5034993;28;20498;-69
2022/03/25 09:53:28;;;;;;;65.05;38.42;;;;;;;;;;5039118;28;20509;-70
2022/03/25 09:55:54;;;;;;;67.80;38.67;;;;;;;;;;5037512;28;20053;-70
2022/03/25 09:58:23;;;;;;;66.35;39.20;;;;;;;;;;5040149;28;20045;-69
2022/03/25 10:00:49;;;;;;;;;;;;;;;;;;5030178;28;20045;-70
2022/03/25 10:03:24;;;;;;;55.55;32.47;;;;;;;;;;5053969;28;19935;-69
2022/03/25 10:05:58;;;;;;;65.85;39.10;;;;;;;;;;5041998;28;20052;-70
2022/03/25 10:08:40;;;;;;;63.80;37.70;;;;;;;;;;5040645;28;20056;-69
2022/03/25 10:11:23;;;;;;;61.78;39.30;;;;;;;;;;5036937;28;20546;-69
2022/03/25 10:14:09;;;;;;;66.85;38.85;;;;;;;;;;5019692;28;20633;-69
2022/03/25 10:16:36;;;;;;;71.47;39.67;;;;;;;;;;5038019;28;20060;-69
2022/03/25 10:19:02;;;;;;;60.50;37.10;;;;;;;;;;5031138;28;20048;-69
2022/03/25 10:21:31;;;;;;;69.30;39.45;;;;;;;;;;5045307;28;20060;-69
2022/03/25 10:23:57;;;;;;;66.82;38.92;;;;;;;;;;5042437;28;20399;-70
2022/03/25 10:26:34;;;;;;;66.50;38.78;;;;;;;;;;5042924;28;20066;-69
2022/03/25 10:29:00;;;;;;;70.18;40.63;;;;;;;;;;5037395;28;20049;-69
2022/03/25 10:31:27;;;;;;;64.28;39.72;;;;;;;;;;5019325;28;20513;-69
2022/03/25 10:33:59;;;;;;;64.45;39.17;;;;;;;;;;5042783;28;20422;-70
2022/03/25 10:36:26;;;;;;;68.57;39.20;;;;;;;;;;5035800;28;20513;-69
2022/03/25 10:38:54;;;;;;;60.72;37.90;;;;;;;;;;5046700;28;20057;-69
2022/03/25 10:41:40;;;;;;;65.28;39.63;;;;;;;;;;5038437;28;20045;-69
2022/03/25 10:44:08;;;;;;;67.28;36.85;;;;;;;;;;5025458;28;20064;-69
2022/03/25 10:46:49;;;;;;;59.45;36.75;;;;;;;;;;5048318;28;20421;-69
2022/03/25 10:49:16;;;;;;;68.43;39.50;;;;;;;;;;5038470;28;20097;-69
2022/03/25 10:51:44;;;;;;;62.20;38.67;;;;;;;;;;5043633;28;20056;-69
2022/03/25 10:54:12;;;;;;;59.95;36.20;;;;;;;;;;5031383;28;20552;-69
2022/03/25 10:56:41;;;;;;;64.93;39.85;;;;;;;;;;5045538;28;20046;-69
2022/03/25 10:59:18;;;;;;;58.45;38.08;;;;;;;;;;5037127;28;20060;-69
2022/03/25 11:01:45;;;;;;;54.38;34.85;;;;;;;;;;5035679;28;20049;-69
2022/03/25 11:04:12;;;;;;;55.03;34.22;;;;;;;;;;5041015;28;20061;-69
2022/03/25 11:06:39;;;;;;;59.33;38.20;;;;;;;;;;5031893;28;20048;-69
2022/03/25 11:09:07;;;;;;;61.65;39.75;;;;;;;;;;5048146;28;20055;-69
2022/03/25 11:11:34;;;;;;;56.97;37.22;;;;;;;;;;5041115;28;20414;-70
2022/03/25 11:14:02;;;;;;;61.05;39.65;;;;;;;;;;5036601;28;20055;-70
2022/03/25 11:16:28;;;;;;;;;;;;;;;;;;5036895;28;20458;-69
2022/03/25 11:18:55;;;;;;;53.83;32.85;;;;;;;;;;5049322;28;19971;-70
2022/03/25 11:21:22;;;;;;;57.38;33.53;;;;;;;;;;5035455;28;20056;-69
2022/03/25 11:23:52;;;;;;;57.20;37.60;;;;;;;;;;5019889;28;20430;-69
2022/03/25 11:26:20;;;;;;;50.90;34.80;;;;;;;;;;5026542;28;20474;-69
2022/03/25 11:28:51;;;;;;;52.13;34.13;;;;;;;;;;5014657;28;20061;-69
2022/03/25 11:31:17;;;;;;;46.90;32.92;;;;;;;;;;5047704;28;20529;-69
2022/03/25 11:34:09;;;;;;;54.08;30.58;;;;;;;;;;5025228;28;20049;-70
2022/03/25 11:36:40;;;;;;;52.55;32.53;;;;;;;;;;5039230;28;20049;-70
2022/03/25 11:39:15;;;;;;;55.97;35.13;;;;;;;;;;5037416;28;20091;-69
2022/03/25 11:41:42;;;;;;;64.30;38.20;;;;;;;;;;5050663;28;20063;-69
2022/03/25 11:44:14;;;;;;;60.75;37.88;;;;;;;;;;5044815;28;20044;-70
2022/03/25 11:47:13;;;;;;;62.65;39.30;;;;;;;;;;5037172;28;20059;-69
2022/03/25 11:49:40;;;;;;;58.28;36.00;;;;;;;;;;4995317;28;20061;-70
2022/03/25 11:52:15;;;;;;;55.50;37.53;;;;;;;;;;5034864;28;20074;-69
2022/03/25 11:54:42;;;;;;;58.72;36.63;;;;;;;;;;5046897;28;20422;-69
2022/03/25 11:57:22;;;;;;;56.92;37.60;;;;;;;;;;5030806;28;20419;-70
2022/03/25 11:59:49;;;;;;;57.03;39.72;;;;;;;;;;5046804;28;20057;-70
2022/03/25 12:02:32;;;;;;;57.28;39.63;;;;;;;;;;5047176;28;20049;-69
2022/03/25 12:04:59;;;;;;;57.42;37.38;;;;;;;;;;5044182;28;20079;-70
2022/03/25 12:07:25;;;;;;;55.93;38.17;;;;;;;;;;5034172;28;20057;-70
2022/03/25 12:09:52;;;;;;;62.25;37.58;;;;;;;;;;5028942;28;20171;-70
2022/03/25 12:12:18;;;;;;;60.63;37.58;;;;;;;;;;5043269;28;20044;-70
2022/03/25 12:15:04;;;;;;;53.45;36.83;;;;;;;;;;5054412;28;20048;-70
2022/03/25 12:17:31;;;;;;;60.15;37.03;;;;;;;;;;5037727;28;20049;-70
2022/03/25 12:19:57;;;;;;;48.97;33.75;;;;;;;;;;5038306;28;20414;-70
2022/03/25 12:22:25;;;;;;;50.83;33.03;;;;;;;;;;5051179;28;20158;-68
2022/03/25 12:24:52;;;;;;;60.47;37.05;;;;;;;;;;5037804;28;20118;-70
2022/03/25 12:27:19;;;;;;;41.22;30.20;;;;;;;;;;5030134;28;20275;-68
2022/03/25 12:29:51;;;;;;;56.38;34.58;;;;;;;;;;5067500;28;20055;-70
2022/03/25 12:32:19;;;;;;;52.83;35.42;;;;;;;;;;5053854;28;20068;-70
2022/03/25 12:34:59;;;;;;;53.00;35.75;;;;;;;;;;5054986;28;20151;-70
2022/03/25 12:37:28;;;;;;;55.72;36.35;;;;;;;;;;5032121;28;20045;-71
2022/03/25 12:39:55;;;;;;;61.95;37.13;;;;;;;;;;5038849;28;20053;-69
2022/03/25 12:42:26;;;;;;;52.70;34.42;;;;;;;;;;5053312;28;20052;-70
2022/03/25 12:44:53;;;;;;;46.58;31.73;;;;;;;;;;5040603;28;20137;-70
2022/03/25 12:47:33;;;;;;;50.97;33.10;;;;;;;;;;5037025;28;20482;-70
2022/03/25 12:50:00;;;;;;;47.75;33.60;;;;;;;;;;5027153;28;20783;-70
2022/03/25 12:52:27;;;;;;;46.60;29.95;;;;;;;;;;5036036;28;20055;-70
2022/03/25 12:54:53;;;;;;;43.03;29.42;;;;;;;;;;5033914;28;20059;-70
2022/03/25 12:57:30;;;;;;;46.70;27.20;;;;;;;;;;5044904;28;20461;-70
2022/03/25 12:59:57;;;;;;;47.78;28.00;;;;;;;;;;5040035;28;20429;-69
2022/03/25 13:02:31;;;;;;;47.73;30.30;;;;;;;;;;5027512;28;20083;-70
2022/03/25 13:05:10;;;;;;;43.08;26.45;;;;;;;;;;5030709;28;20855;-70
2022/03/25 13:07:37;;;;;;;43.83;27.67;;;;;;;;;;5034834;28;20118;-70
2022/03/25 13:10:04;;;;;;;41.47;25.83;;;;;;;;;;5041225;28;20049;-69
2022/03/25 13:12:31;;;;;;;43.53;26.92;;;;;;;;;;5043655;28;20107;-69
2022/03/25 13:14:58;;;;;;;40.53;25.17;;;;;;;;;;5058684;28;20049;-69
2022/03/25 13:17:25;;;;;;;41.58;27.10;;;;;;;;;;5041279;28;20437;-70
2022/03/25 13:19:56;;;;;;;40.90;27.83;;;;;;;;;;5043240;28;20059;-69
2022/03/25 13:22:22;;;;;;;41.95;26.85;;;;;;;;;;5063161;28;20180;-70
2022/03/25 13:24:56;;;;;;;45.78;33.70;;;;;;;;;;5039187;28;20058;-69
2022/03/25 13:27:22;;;;;;;41.42;28.58;;;;;;;;;;5042059;28;20041;-70
2022/03/25 13:29:50;;;;;;;42.53;31.00;;;;;;;;;;5039508;28;20053;-69
2022/03/25 13:32:27;;;;;;;45.08;31.08;;;;;;;;;;5049718;28;20056;-69
2022/03/25 13:35:00;;;;;;;44.08;28.67;;;;;;;;;;5030379;28;20055;-70
2022/03/25 13:37:26;;;;;;;35.17;20.98;;;;;;;;;;5045275;28;20045;-69
2022/03/25 13:39:53;;;;;;;39.35;24.05;;;;;;;;;;5046510;28;20060;-70
2022/03/25 13:42:19;;;;;;;43.72;29.00;;;;;;;;;;5043102;28;20052;-69
2022/03/25 13:44:45;;;;;;;41.90;29.80;;;;;;;;;;5041023;28;20068;-70
2022/03/25 13:47:11;;;;;;;37.13;28.38;;;;;;;;;;5050901;28;20053;-70
2022/03/25 13:49:38;;;;;;;37.95;25.88;;;;;;;;;;5045517;28;20064;-69
2022/03/25 13:52:07;;;;;;;38.20;24.70;;;;;;;;;;5044588;28;20618;-69
2022/03/25 13:54:34;;;;;;;37.60;24.50;;;;;;;;;;5038677;28;20059;-69
2022/03/25 13:57:04;;;;;;;41.88;25.05;;;;;;;;;;5036710;28;20307;-69
2022/03/25 13:59:35;;;;;;;40.30;26.15;;;;;;;;;;5044154;28;20626;-70
2022/03/25 14:02:02;;;;;;;39.50;25.55;;;;;;;;;;5044385;28;20879;-69
2022/03/25 14:04:29;;;;;;;39.53;26.65;;;;;;;;;;5042172;28;20719;-69
2022/03/25 14:07:01;;;;;;;44.00;24.75;;;;;;;;;;5047129;28;20121;-69
2022/03/25 14:09:32;;;;;;;42.25;24.00;;;;;;;;;;5019318;28;20204;-70
2022/03/25 14:12:00;;;;;;;45.80;25.58;;;;;;;;;;5048949;28;20118;-69
2022/03/25 14:14:27;;;;;;;36.25;22.63;;;;;;;;;;5048254;28;20477;-70
2022/03/25 14:16:54;;;;;;;40.75;23.58;;;;;;;;;;5037916;28;20045;-70
2022/03/25 14:19:21;;;;;;;36.78;20.40;;;;;;;;;;5051687;28;20087;-70
2022/03/25 14:21:48;;;;;;;30.92;21.90;;;;;;;;;;5041258;28;20327;-70
2022/03/25 14:24:31;;;;;;;39.63;22.35;;;;;;;;;;5031450;28;20124;-71
2022/03/25 14:26:59;;;;;;;33.63;20.95;;;;;;;;;;5026206;28;20057;-70